sensor_id;sensor_type;location;lat;lon;timestamp;pressure;altitude;pressure_sealevel;temperature;humidity
10060;BME280;5069;49.306;8.636;2023-04-27T00:02:33;100662.63;;;8.74;72.24
10060;BME280;5069;49.306;8.636;2023-04-27T00:05:35;100657.09;;;8.86;69.51
10060;BME280;5069;49.306;8.636;2023-04-27T00:08:37;100654.88;;;8.66;71.03
10060;BME280;5069;49.306;8.636;2023-04-27T00:11:38;100649.94;;;8.52;71.67
10060;BME280;5069;49.306;8.636;2023-04-27T00:14:40;100644.78;;;8.48;72.49
10060;BME280;5069;49.306;8.636;2023-04-27T00:17:41;100636.06;;;8.46;73.72
10060;BME280;5069;49.306;8.636;2023-04-27T00:20:44;100642.19;;;8.46;73.22
10060;BME280;5069;49.306;8.636;2023-04-27T00:23:45;100643.31;;;8.35;73.24
10060;BME280;5069;49.306;8.636;2023-04-27T00:26:46;100635.41;;;8.36;73.70
10060;BME280;5069;49.306;8.636;2023-04-27T00:29:48;100634.66;;;8.28;73.22
10060;BME280;5069;49.306;8.636;2023-04-27T00:32:49;100639.13;;;8.23;74.21
10060;BME280;5069;49.306;8.636;2023-04-27T00:35:51;100635.53;;;8.27;71.89
10060;BME280;5069;49.306;8.636;2023-04-27T00:38:54;100632.03;;;8.26;71.90
10060;BME280;5069;49.306;8.636;2023-04-27T00:41:56;100640.13;;;8.17;72.97
10060;BME280;5069;49.306;8.636;2023-04-27T00:44:57;100638.38;;;8.18;72.40
10060;BME280;5069;49.306;8.636;2023-04-27T00:48:02;100634.88;;;8.17;73.45
10060;BME280;5069;49.306;8.636;2023-04-27T00:51:04;100639.38;;;8.11;73.17
10060;BME280;5069;49.306;8.636;2023-04-27T00:54:07;100639.38;;;8.11;72.93
10060;BME280;5069;49.306;8.636;2023-04-27T00:57:09;100640.44;;;8.01;72.69
10060;BME280;5069;49.306;8.636;2023-04-27T01:00:11;100638.00;;;7.92;72.21
10060;BME280;5069;49.306;8.636;2023-04-27T01:03:13;100648.84;;;7.73;72.76
10060;BME280;5069;49.306;8.636;2023-04-27T01:06:17;100651.81;;;7.54;75.03
10060;BME280;5069;49.306;8.636;2023-04-27T01:09:19;100651.91;;;7.47;74.95
10060;BME280;5069;49.306;8.636;2023-04-27T01:12:23;100643.94;;;7.52;75.06
10060;BME280;5069;49.306;8.636;2023-04-27T01:15:25;100657.13;;;7.51;73.97
10060;BME280;5069;49.306;8.636;2023-04-27T01:18:27;100648.66;;;7.33;74.27
10060;BME280;5069;49.306;8.636;2023-04-27T01:21:30;100654.88;;;7.28;73.58
10060;BME280;5069;49.306;8.636;2023-04-27T01:24:32;100642.75;;;7.21;73.99
10060;BME280;5069;49.306;8.636;2023-04-27T01:27:33;100651.38;;;7.27;74.21
10060;BME280;5069;49.306;8.636;2023-04-27T01:30:35;100655.03;;;7.17;75.03
10060;BME280;5069;49.306;8.636;2023-04-27T01:33:37;100655.06;;;7.16;75.19
10060;BME280;5069;49.306;8.636;2023-04-27T01:36:39;100650.63;;;7.18;75.54
10060;BME280;5069;49.306;8.636;2023-04-27T01:39:41;100656.72;;;7.20;74.04
10060;BME280;5069;49.306;8.636;2023-04-27T01:42:42;100655.06;;;7.16;75.10
10060;BME280;5069;49.306;8.636;2023-04-27T01:45:44;100655.19;;;7.06;75.12
10060;BME280;5069;49.306;8.636;2023-04-27T01:48:45;100650.94;;;6.98;75.64
10060;BME280;5069;49.306;8.636;2023-04-27T01:51:47;100650.91;;;7.01;76.51
10060;BME280;5069;49.306;8.636;2023-04-27T01:54:49;100651.75;;;7.01;76.52
10060;BME280;5069;49.306;8.636;2023-04-27T01:57:51;100657.06;;;6.98;76.52
10060;BME280;5069;49.306;8.636;2023-04-27T02:00:53;100650.25;;;6.88;77.21
10060;BME280;5069;49.306;8.636;2023-04-27T02:03:54;100660.66;;;6.91;78.19
10060;BME280;5069;49.306;8.636;2023-04-27T02:06:56;100655.31;;;6.97;77.46
10060;BME280;5069;49.306;8.636;2023-04-27T02:09:57;100657.00;;;7.01;77.57
10060;BME280;5069;49.306;8.636;2023-04-27T02:12:59;100656.09;;;7.04;75.84
10060;BME280;5069;49.306;8.636;2023-04-27T02:16:00;100666.59;;;7.04;76.49
10060;BME280;5069;49.306;8.636;2023-04-27T02:19:05;100663.91;;;7.09;74.44
10060;BME280;5069;49.306;8.636;2023-04-27T02:22:07;100663.72;;;7.21;75.73
10060;BME280;5069;49.306;8.636;2023-04-27T02:25:12;100660.94;;;7.30;75.02
10060;BME280;5069;49.306;8.636;2023-04-27T02:28:16;100670.44;;;7.37;75.07
10060;BME280;5069;49.306;8.636;2023-04-27T02:31:18;100667.81;;;7.37;74.31
10060;BME280;5069;49.306;8.636;2023-04-27T02:34:19;100670.41;;;7.40;74.30
10060;BME280;5069;49.306;8.636;2023-04-27T02:37:21;100677.59;;;7.29;73.65
10060;BME280;5069;49.306;8.636;2023-04-27T02:40:22;100674.22;;;7.19;73.70
10060;BME280;5069;49.306;8.636;2023-04-27T02:43:24;100672.47;;;7.20;74.27
10060;BME280;5069;49.306;8.636;2023-04-27T02:46:25;100675.06;;;7.21;73.66
10060;BME280;5069;49.306;8.636;2023-04-27T02:49:27;100677.69;;;7.23;74.94
10060;BME280;5069;49.306;8.636;2023-04-27T02:52:29;100679.25;;;7.33;74.39
10060;BME280;5069;49.306;8.636;2023-04-27T02:55:30;100678.13;;;7.47;74.41
10060;BME280;5069;49.306;8.636;2023-04-27T02:58:32;100677.16;;;7.55;74.98
10060;BME280;5069;49.306;8.636;2023-04-27T03:01:33;100683.16;;;7.61;73.84
10060;BME280;5069;49.306;8.636;2023-04-27T03:04:35;100677.72;;;7.72;73.40
10060;BME280;5069;49.306;8.636;2023-04-27T03:07:37;100685.41;;;7.81;75.02
10060;BME280;5069;49.306;8.636;2023-04-27T03:10:38;100679.94;;;7.95;72.74
10060;BME280;5069;49.306;8.636;2023-04-27T03:13:39;100672.94;;;7.94;74.51
10060;BME280;5069;49.306;8.636;2023-04-27T03:16:44;100665.97;;;7.93;72.92
10060;BME280;5069;49.306;8.636;2023-04-27T03:19:47;100662.44;;;7.94;73.72
10060;BME280;5069;49.306;8.636;2023-04-27T03:22:49;100673.03;;;7.91;73.82
10060;BME280;5069;49.306;8.636;2023-04-27T03:25:52;100668.56;;;7.94;74.00
10060;BME280;5069;49.306;8.636;2023-04-27T03:28:54;100674.75;;;7.92;73.41
10060;BME280;5069;49.306;8.636;2023-04-27T03:31:56;100682.69;;;7.87;73.77
10060;BME280;5069;49.306;8.636;2023-04-27T03:34:57;100678.19;;;7.94;73.27
10060;BME280;5069;49.306;8.636;2023-04-27T03:38:00;100678.94;;;8.02;72.62
10060;BME280;5069;49.306;8.636;2023-04-27T03:41:01;100683.13;;;8.12;72.14
10060;BME280;5069;49.306;8.636;2023-04-27T03:44:04;100678.72;;;8.12;74.59
10060;BME280;5069;49.306;8.636;2023-04-27T03:47:07;100683.00;;;8.18;72.14
10060;BME280;5069;49.306;8.636;2023-04-27T03:50:12;100672.53;;;8.16;72.76
10060;BME280;5069;49.306;8.636;2023-04-27T03:53:14;100668.09;;;8.20;73.37
10060;BME280;5069;49.306;8.636;2023-04-27T03:56:16;100672.44;;;8.21;73.88
10060;BME280;5069;49.306;8.636;2023-04-27T03:59:18;100674.84;;;8.33;72.10
10060;BME280;5069;49.306;8.636;2023-04-27T04:02:23;100667.06;;;8.27;73.91
10060;BME280;5069;49.306;8.636;2023-04-27T04:05:24;100674.88;;;8.32;73.83
10060;BME280;5069;49.306;8.636;2023-04-27T04:08:28;100675.91;;;8.23;73.53
10060;BME280;5069;49.306;8.636;2023-04-27T04:11:30;100687.25;;;8.25;74.71
10060;BME280;5069;49.306;8.636;2023-04-27T04:14:33;100688.94;;;8.27;74.12
10060;BME280;5069;49.306;8.636;2023-04-27T04:17:34;100679.16;;;8.37;73.10
10060;BME280;5069;49.306;8.636;2023-04-27T04:20:36;100679.28;;;8.28;75.56
10060;BME280;5069;49.306;8.636;2023-04-27T04:23:38;100680.75;;;8.44;77.80
10060;BME280;5069;49.306;8.636;2023-04-27T04:26:41;100682.72;;;8.33;75.20
10060;BME280;5069;49.306;8.636;2023-04-27T04:29:42;100680.09;;;8.33;75.77
10060;BME280;5069;49.306;8.636;2023-04-27T04:32:44;100681.94;;;8.26;75.19
10060;BME280;5069;49.306;8.636;2023-04-27T04:35:45;100679.28;;;8.31;75.40
10060;BME280;5069;49.306;8.636;2023-04-27T04:38:47;100684.53;;;8.31;78.72
10060;BME280;5069;49.306;8.636;2023-04-27T04:41:49;100689.72;;;8.34;78.46
10060;BME280;5069;49.306;8.636;2023-04-27T04:44:52;100688.81;;;8.35;81.34
10060;BME280;5069;49.306;8.636;2023-04-27T04:47:54;100686.28;;;8.29;82.24
10060;BME280;5069;49.306;8.636;2023-04-27T04:50:56;100695.28;;;8.16;82.84
10060;BME280;5069;49.306;8.636;2023-04-27T04:53:58;100695.16;;;8.22;83.17
10060;BME280;5069;49.306;8.636;2023-04-27T04:57:02;100693.31;;;8.30;83.07
10060;BME280;5069;49.306;8.636;2023-04-27T05:00:04;100698.31;;;8.42;81.47
10060;BME280;5069;49.306;8.636;2023-04-27T05:03:08;100696.47;;;8.47;81.16
10060;BME280;5069;49.306;8.636;2023-04-27T05:06:09;100698.00;;;8.57;81.26
10060;BME280;5069;49.306;8.636;2023-04-27T05:09:11;100705.63;;;8.69;80.63
10060;BME280;5069;49.306;8.636;2023-04-27T05:12:13;100702.88;;;8.76;81.67
10060;BME280;5069;49.306;8.636;2023-04-27T05:15:14;100705.63;;;8.71;81.68
10060;BME280;5069;49.306;8.636;2023-04-27T05:18:16;100706.25;;;8.82;81.80
10060;BME280;5069;49.306;8.636;2023-04-27T05:21:18;100699.03;;;8.92;79.26
10060;BME280;5069;49.306;8.636;2023-04-27T05:24:21;100708.41;;;9.03;76.80
10060;BME280;5069;49.306;8.636;2023-04-27T05:27:22;100707.38;;;9.10;75.92
10060;BME280;5069;49.306;8.636;2023-04-27T05:30:24;100711.00;;;9.05;74.55
10060;BME280;5069;49.306;8.636;2023-04-27T05:33:26;100719.94;;;8.98;75.06
10060;BME280;5069;49.306;8.636;2023-04-27T05:36:27;100725.84;;;9.06;75.06
10060;BME280;5069;49.306;8.636;2023-04-27T05:39:29;100731.22;;;9.01;75.75
10060;BME280;5069;49.306;8.636;2023-04-27T05:42:30;100737.31;;;9.03;76.56
10060;BME280;5069;49.306;8.636;2023-04-27T05:45:31;100732.72;;;9.13;75.38
10060;BME280;5069;49.306;8.636;2023-04-27T05:48:33;100726.28;;;9.26;74.70
10060;BME280;5069;49.306;8.636;2023-04-27T05:51:34;100730.03;;;9.16;73.94
10060;BME280;5069;49.306;8.636;2023-04-27T05:54:36;100726.66;;;9.11;72.75
10060;BME280;5069;49.306;8.636;2023-04-27T05:57:37;100740.63;;;9.13;72.63
10060;BME280;5069;49.306;8.636;2023-04-27T06:00:39;100739.50;;;9.23;73.30
10060;BME280;5069;49.306;8.636;2023-04-27T06:03:40;100734.09;;;9.29;72.73
10060;BME280;5069;49.306;8.636;2023-04-27T06:06:42;100739.97;;;9.40;72.21
10060;BME280;5069;49.306;8.636;2023-04-27T06:09:45;100748.81;;;9.39;72.04
10060;BME280;5069;49.306;8.636;2023-04-27T06:12:46;100738.06;;;9.48;71.76
10060;BME280;5069;49.306;8.636;2023-04-27T06:15:48;100743.31;;;9.48;71.66
10060;BME280;5069;49.306;8.636;2023-04-27T06:18:49;100742.28;;;9.56;72.38
10060;BME280;5069;49.306;8.636;2023-04-27T06:21:52;100740.31;;;9.64;72.81
10060;BME280;5069;49.306;8.636;2023-04-27T06:24:54;100742.72;;;9.73;70.87
10060;BME280;5069;49.306;8.636;2023-04-27T06:27:56;100753.19;;;9.74;70.98
10060;BME280;5069;49.306;8.636;2023-04-27T06:30:58;100753.97;;;9.79;70.90
10060;BME280;5069;49.306;8.636;2023-04-27T06:33:59;100761.81;;;9.81;70.86
10060;BME280;5069;49.306;8.636;2023-04-27T06:37:01;100757.25;;;9.89;70.84
10060;BME280;5069;49.306;8.636;2023-04-27T06:40:03;100759.72;;;9.95;68.69
10060;BME280;5069;49.306;8.636;2023-04-27T06:43:04;100757.81;;;10.02;67.76
10060;BME280;5069;49.306;8.636;2023-04-27T06:46:06;100762.72;;;10.14;62.90
10060;BME280;5069;49.306;8.636;2023-04-27T06:49:07;100757.25;;;10.24;61.16
10060;BME280;5069;49.306;8.636;2023-04-27T06:52:09;100761.38;;;10.33;59.07
10060;BME280;5069;49.306;8.636;2023-04-27T06:55:10;100759.16;;;10.50;59.25
10060;BME280;5069;49.306;8.636;2023-04-27T06:58:12;100771.06;;;10.65;57.60
10060;BME280;5069;49.306;8.636;2023-04-27T07:01:13;100757.88;;;10.65;56.84
10060;BME280;5069;49.306;8.636;2023-04-27T07:04:15;100762.91;;;10.72;56.96
10060;BME280;5069;49.306;8.636;2023-04-27T07:07:16;100763.75;;;10.74;56.51
10060;BME280;5069;49.306;8.636;2023-04-27T07:10:18;100759.06;;;10.84;55.95
10060;BME280;5069;49.306;8.636;2023-04-27T07:13:20;100764.94;;;10.94;55.99
10060;BME280;5069;49.306;8.636;2023-04-27T07:16:21;100764.50;;;11.09;55.67
10060;BME280;5069;49.306;8.636;2023-04-27T07:19:23;100759.09;;;11.13;55.59
10060;BME280;5069;49.306;8.636;2023-04-27T07:22:24;100766.81;;;11.19;54.30
10060;BME280;5069;49.306;8.636;2023-04-27T07:25:26;100765.00;;;11.22;55.41
10060;BME280;5069;49.306;8.636;2023-04-27T07:28:28;100772.75;;;11.28;55.26
10060;BME280;5069;49.306;8.636;2023-04-27T07:31:29;100768.03;;;11.37;54.34
10060;BME280;5069;49.306;8.636;2023-04-27T07:34:32;100774.38;;;11.32;55.65
10060;BME280;5069;49.306;8.636;2023-04-27T07:37:52;100763.28;;;11.48;56.28
10060;BME280;5069;49.306;8.636;2023-04-27T07:40:54;100763.78;;;11.33;56.58
10060;BME280;5069;49.306;8.636;2023-04-27T07:43:55;100761.25;;;11.29;58.07
10060;BME280;5069;49.306;8.636;2023-04-27T07:46:58;100762.41;;;11.20;58.03
10060;BME280;5069;49.306;8.636;2023-04-27T07:49:59;100759.66;;;11.23;59.38
10060;BME280;5069;49.306;8.636;2023-04-27T07:53:01;100765.09;;;11.18;59.86
10060;BME280;5069;49.306;8.636;2023-04-27T07:56:04;100763.28;;;11.21;59.61
10060;BME280;5069;49.306;8.636;2023-04-27T07:59:06;100755.50;;;11.44;58.53
10060;BME280;5069;49.306;8.636;2023-04-27T08:02:07;100749.28;;;11.74;58.39
10060;BME280;5069;49.306;8.636;2023-04-27T08:05:20;100757.44;;;11.67;58.30
10060;BME280;5069;49.306;8.636;2023-04-27T08:08:22;100755.78;;;11.63;58.72
10060;BME280;5069;49.306;8.636;2023-04-27T08:11:23;100751.84;;;11.48;59.62
10060;BME280;5069;49.306;8.636;2023-04-27T08:14:25;100753.84;;;11.68;60.30
10060;BME280;5069;49.306;8.636;2023-04-27T08:17:27;100759.78;;;11.76;58.90
10060;BME280;5069;49.306;8.636;2023-04-27T08:20:28;100756.41;;;11.71;58.48
10060;BME280;5069;49.306;8.636;2023-04-27T08:23:29;100755.34;;;11.78;57.76
10060;BME280;5069;49.306;8.636;2023-04-27T08:26:33;100744.69;;;11.79;58.09
10060;BME280;5069;49.306;8.636;2023-04-27T08:29:35;100740.22;;;12.08;57.17
10060;BME280;5069;49.306;8.636;2023-04-27T08:32:37;100744.16;;;12.21;55.54
10060;BME280;5069;49.306;8.636;2023-04-27T08:35:38;100734.69;;;12.40;54.52
10060;BME280;5069;49.306;8.636;2023-04-27T08:38:40;100737.38;;;12.38;54.48
10060;BME280;5069;49.306;8.636;2023-04-27T08:41:41;100737.59;;;12.32;53.73
10060;BME280;5069;49.306;8.636;2023-04-27T08:44:44;100733.44;;;12.25;54.56
10060;BME280;5069;49.306;8.636;2023-04-27T08:47:45;100722.47;;;12.36;54.57
10060;BME280;5069;49.306;8.636;2023-04-27T08:50:49;100736.78;;;12.55;54.03
10060;BME280;5069;49.306;8.636;2023-04-27T08:53:53;100727.59;;;12.89;54.70
10060;BME280;5069;49.306;8.636;2023-04-27T08:56:55;100727.34;;;12.95;53.86
10060;BME280;5069;49.306;8.636;2023-04-27T08:59:58;100728.63;;;13.08;53.43
10060;BME280;5069;49.306;8.636;2023-04-27T09:03:26;100725.75;;;13.37;52.96
10060;BME280;5069;49.306;8.636;2023-04-27T09:06:32;100722.28;;;13.57;52.78
10060;BME280;5069;49.306;8.636;2023-04-27T09:09:35;100736.50;;;13.76;51.32
10060;BME280;5069;49.306;8.636;2023-04-27T09:12:36;100740.25;;;13.71;50.45
10060;BME280;5069;49.306;8.636;2023-04-27T09:15:45;100731.97;;;14.00;50.65
10060;BME280;5069;49.306;8.636;2023-04-27T09:18:49;100730.38;;;14.16;50.40
10060;BME280;5069;49.306;8.636;2023-04-27T09:21:50;100736.25;;;14.02;48.97
10060;BME280;5069;49.306;8.636;2023-04-27T09:25:03;100734.38;;;14.06;48.28
10060;BME280;5069;49.306;8.636;2023-04-27T09:28:06;100736.09;;;14.47;50.33
10060;BME280;5069;49.306;8.636;2023-04-27T09:31:08;100727.28;;;14.86;49.33
10060;BME280;5069;49.306;8.636;2023-04-27T09:34:11;100719.03;;;15.11;47.91
10060;BME280;5069;49.306;8.636;2023-04-27T09:37:13;100716.88;;;15.00;46.10
10060;BME280;5069;49.306;8.636;2023-04-27T09:40:15;100707.81;;;14.67;46.21
10060;BME280;5069;49.306;8.636;2023-04-27T09:43:18;100709.25;;;14.35;46.79
10060;BME280;5069;49.306;8.636;2023-04-27T09:46:20;100706.66;;;14.33;47.14
10060;BME280;5069;49.306;8.636;2023-04-27T09:49:25;100706.78;;;14.30;47.61
10060;BME280;5069;49.306;8.636;2023-04-27T09:52:26;100703.34;;;14.48;47.89
10060;BME280;5069;49.306;8.636;2023-04-27T09:55:56;100705.81;;;14.72;48.25
10060;BME280;5069;49.306;8.636;2023-04-27T10:02:11;100694.38;;;15.63;45.49
10060;BME280;5069;49.306;8.636;2023-04-27T10:05:37;100698.38;;;15.89;45.65
10060;BME280;5069;49.306;8.636;2023-04-27T10:08:42;100685.72;;;15.94;44.43
10060;BME280;5069;49.306;8.636;2023-04-27T10:11:44;100692.88;;;15.58;45.56
10060;BME280;5069;49.306;8.636;2023-04-27T10:14:55;100693.88;;;15.55;45.43
10060;BME280;5069;49.306;8.636;2023-04-27T10:18:03;100697.44;;;15.73;46.08
10060;BME280;5069;49.306;8.636;2023-04-27T10:21:09;100692.97;;;15.91;45.44
10060;BME280;5069;49.306;8.636;2023-04-27T10:24:11;100693.50;;;16.32;44.37
10060;BME280;5069;49.306;8.636;2023-04-27T10:27:16;100698.00;;;16.64;43.78
10060;BME280;5069;49.306;8.636;2023-04-27T10:30:22;100690.16;;;16.78;39.21
10060;BME280;5069;49.306;8.636;2023-04-27T10:33:23;100687.22;;;16.67;39.74
10060;BME280;5069;49.306;8.636;2023-04-27T10:36:33;100686.22;;;16.85;41.67
10060;BME280;5069;49.306;8.636;2023-04-27T10:39:37;100685.34;;;16.85;42.14
10060;BME280;5069;49.306;8.636;2023-04-27T10:42:49;100683.28;;;16.90;42.71
10060;BME280;5069;49.306;8.636;2023-04-27T10:45:50;100692.56;;;16.99;42.49
10060;BME280;5069;49.306;8.636;2023-04-27T10:48:52;100683.78;;;16.81;42.63
10060;BME280;5069;49.306;8.636;2023-04-27T10:51:56;100680.44;;;17.09;42.87
10060;BME280;5069;49.306;8.636;2023-04-27T10:55:11;100685.19;;;17.04;42.10
10060;BME280;5069;49.306;8.636;2023-04-27T10:58:12;100683.44;;;16.71;42.07
10060;BME280;5069;49.306;8.636;2023-04-27T11:01:26;100679.66;;;16.75;41.49
10060;BME280;5069;49.306;8.636;2023-04-27T11:04:39;100679.84;;;16.72;39.36
10060;BME280;5069;49.306;8.636;2023-04-27T11:07:40;100666.28;;;16.92;39.18
10060;BME280;5069;49.306;8.636;2023-04-27T11:10:48;100670.78;;;17.08;39.56
10060;BME280;5069;49.306;8.636;2023-04-27T11:13:50;100661.63;;;17.27;38.43
10060;BME280;5069;49.306;8.636;2023-04-27T11:16:55;100667.91;;;17.26;38.01
10060;BME280;5069;49.306;8.636;2023-04-27T11:19:57;100668.00;;;17.25;38.35
10060;BME280;5069;49.306;8.636;2023-04-27T11:22:58;100672.88;;;17.32;38.27
10060;BME280;5069;49.306;8.636;2023-04-27T11:26:08;100666.03;;;17.28;38.09
10060;BME280;5069;49.306;8.636;2023-04-27T11:29:10;100662.59;;;17.42;37.26
10060;BME280;5069;49.306;8.636;2023-04-27T11:32:21;100654.59;;;17.11;35.78
10060;BME280;5069;49.306;8.636;2023-04-27T11:35:32;100648.06;;;17.01;35.53
10060;BME280;5069;49.306;8.636;2023-04-27T11:38:34;100651.25;;;17.23;38.38
10060;BME280;5069;49.306;8.636;2023-04-27T11:41:36;100648.19;;;17.60;38.03
10060;BME280;5069;49.306;8.636;2023-04-27T11:44:37;100643.03;;;17.57;39.68
10060;BME280;5069;49.306;8.636;2023-04-27T11:47:45;100636.81;;;17.72;39.63
10060;BME280;5069;49.306;8.636;2023-04-27T11:50:48;100641.47;;;17.99;39.71
10060;BME280;5069;49.306;8.636;2023-04-27T11:53:50;100644.34;;;18.10;40.02
10060;BME280;5069;49.306;8.636;2023-04-27T11:56:52;100638.22;;;18.08;38.38
10060;BME280;5069;49.306;8.636;2023-04-27T11:59:58;100636.91;;;18.15;39.15
10060;BME280;5069;49.306;8.636;2023-04-27T12:03:13;100626.81;;;18.34;38.05
10060;BME280;5069;49.306;8.636;2023-04-27T12:06:15;100627.97;;;18.30;38.11
10060;BME280;5069;49.306;8.636;2023-04-27T12:09:33;100623.03;;;17.80;37.59
10060;BME280;5069;49.306;8.636;2023-04-27T12:12:34;100615.13;;;17.79;38.54
10060;BME280;5069;49.306;8.636;2023-04-27T12:15:37;100615.03;;;17.94;38.16
10060;BME280;5069;49.306;8.636;2023-04-27T12:18:38;100614.25;;;18.22;38.30
10060;BME280;5069;49.306;8.636;2023-04-27T12:21:39;100607.38;;;18.32;36.81
10060;BME280;5069;49.306;8.636;2023-04-27T12:24:42;100605.13;;;18.54;36.79
10060;BME280;5069;49.306;8.636;2023-04-27T12:27:44;100604.31;;;18.52;37.40
10060;BME280;5069;49.306;8.636;2023-04-27T12:30:48;100599.38;;;18.61;35.83
10060;BME280;5069;49.306;8.636;2023-04-27T12:33:50;100600.31;;;18.45;36.04
10060;BME280;5069;49.306;8.636;2023-04-27T12:36:51;100595.75;;;18.19;37.59
10060;BME280;5069;49.306;8.636;2023-04-27T12:39:53;100591.94;;;18.37;37.71
10060;BME280;5069;49.306;8.636;2023-04-27T12:42:55;100589.19;;;18.39;36.18
10060;BME280;5069;49.306;8.636;2023-04-27T12:45:58;100581.25;;;18.37;37.13
10060;BME280;5069;49.306;8.636;2023-04-27T12:49:00;100582.69;;;18.29;36.97
10060;BME280;5069;49.306;8.636;2023-04-27T12:52:02;100574.19;;;18.08;37.32
10060;BME280;5069;49.306;8.636;2023-04-27T12:55:04;100583.19;;;18.21;37.25
10060;BME280;5069;49.306;8.636;2023-04-27T12:58:06;100588.97;;;18.42;37.22
10060;BME280;5069;49.306;8.636;2023-04-27T13:01:08;100583.75;;;18.54;36.24
10060;BME280;5069;49.306;8.636;2023-04-27T13:04:18;100581.06;;;18.69;35.70
10060;BME280;5069;49.306;8.636;2023-04-27T13:07:21;100574.53;;;18.87;36.24
10060;BME280;5069;49.306;8.636;2023-04-27T13:10:23;100577.50;;;19.09;35.27
10060;BME280;5069;49.306;8.636;2023-04-27T13:13:24;100575.09;;;19.19;36.55
10060;BME280;5069;49.306;8.636;2023-04-27T13:16:26;100572.97;;;19.24;36.65
10060;BME280;5069;49.306;8.636;2023-04-27T13:19:27;100563.59;;;19.44;36.34
10060;BME280;5069;49.306;8.636;2023-04-27T13:22:29;100558.47;;;19.40;35.32
10060;BME280;5069;49.306;8.636;2023-04-27T13:25:30;100562.97;;;19.40;36.14
10060;BME280;5069;49.306;8.636;2023-04-27T13:28:32;100564.13;;;19.63;36.70
10060;BME280;5069;49.306;8.636;2023-04-27T13:31:33;100561.41;;;19.50;36.16
10060;BME280;5069;49.306;8.636;2023-04-27T13:34:35;100564.56;;;19.69;35.39
10060;BME280;5069;49.306;8.636;2023-04-27T13:37:37;100559.97;;;19.45;36.45
10060;BME280;5069;49.306;8.636;2023-04-27T13:40:40;100559.50;;;19.25;36.56
10060;BME280;5069;49.306;8.636;2023-04-27T13:43:41;100558.63;;;19.12;36.89
10060;BME280;5069;49.306;8.636;2023-04-27T13:46:43;100562.53;;;19.33;36.50
10060;BME280;5069;49.306;8.636;2023-04-27T13:49:45;100555.72;;;19.15;35.97
10060;BME280;5069;49.306;8.636;2023-04-27T13:52:47;100552.16;;;19.02;35.63
10060;BME280;5069;49.306;8.636;2023-04-27T13:55:48;100559.75;;;18.81;36.62
10060;BME280;5069;49.306;8.636;2023-04-27T13:58:49;100554.06;;;19.00;36.49
10060;BME280;5069;49.306;8.636;2023-04-27T14:01:51;100561.84;;;19.17;36.97
10060;BME280;5069;49.306;8.636;2023-04-27T14:04:53;100560.81;;;19.32;36.50
10060;BME280;5069;49.306;8.636;2023-04-27T14:07:55;100562.94;;;19.27;36.08
10060;BME280;5069;49.306;8.636;2023-04-27T14:10:57;100552.09;;;19.16;36.85
10060;BME280;5069;49.306;8.636;2023-04-27T14:13:58;100551.34;;;19.14;37.47
10060;BME280;5069;49.306;8.636;2023-04-27T14:17:00;100556.22;;;19.34;36.68
10060;BME280;5069;49.306;8.636;2023-04-27T14:20:02;100559.50;;;19.52;36.77
10060;BME280;5069;49.306;8.636;2023-04-27T14:23:07;100561.75;;;19.58;35.92
10060;BME280;5069;49.306;8.636;2023-04-27T14:26:09;100562.25;;;19.11;37.20
10060;BME280;5069;49.306;8.636;2023-04-27T14:29:10;100557.34;;;19.18;37.21
10060;BME280;5069;49.306;8.636;2023-04-27T14:32:12;100557.59;;;19.27;36.76
10060;BME280;5069;49.306;8.636;2023-04-27T14:35:14;100554.69;;;19.18;37.04
10060;BME280;5069;49.306;8.636;2023-04-27T14:38:15;100547.00;;;19.53;36.99
10060;BME280;5069;49.306;8.636;2023-04-27T14:41:17;100545.72;;;19.84;36.43
10060;BME280;5069;49.306;8.636;2023-04-27T14:44:18;100538.22;;;19.89;36.18
10060;BME280;5069;49.306;8.636;2023-04-27T14:47:20;100541.88;;;20.00;35.56
10060;BME280;5069;49.306;8.636;2023-04-27T14:50:21;100539.22;;;19.75;36.05
10060;BME280;5069;49.306;8.636;2023-04-27T14:53:23;100540.03;;;19.88;35.92
10060;BME280;5069;49.306;8.636;2023-04-27T14:56:25;100544.75;;;19.85;35.77
10060;BME280;5069;49.306;8.636;2023-04-27T14:59:27;100544.66;;;19.86;35.19
10060;BME280;5069;49.306;8.636;2023-04-27T15:02:29;100536.41;;;19.89;35.11
10060;BME280;5069;49.306;8.636;2023-04-27T15:05:34;100546.97;;;19.65;35.39
10060;BME280;5069;49.306;8.636;2023-04-27T15:08:35;100540.72;;;20.04;35.62
10060;BME280;5069;49.306;8.636;2023-04-27T15:11:36;100533.72;;;20.14;36.13
10060;BME280;5069;49.306;8.636;2023-04-27T15:14:39;100529.00;;;20.05;36.13
10060;BME280;5069;49.306;8.636;2023-04-27T15:17:40;100523.25;;;19.99;35.71
10060;BME280;5069;49.306;8.636;2023-04-27T15:20:42;100531.16;;;20.13;35.83
10060;BME280;5069;49.306;8.636;2023-04-27T15:23:45;100523.13;;;20.26;35.42
10060;BME280;5069;49.306;8.636;2023-04-27T15:26:46;100524.72;;;20.41;35.55
10060;BME280;5069;49.306;8.636;2023-04-27T15:29:48;100514.66;;;20.19;35.80
10060;BME280;5069;49.306;8.636;2023-04-27T15:32:50;100517.09;;;20.22;35.52
10060;BME280;5069;49.306;8.636;2023-04-27T15:35:51;100508.03;;;20.12;36.17
10060;BME280;5069;49.306;8.636;2023-04-27T15:38:53;100505.69;;;19.82;36.13
10060;BME280;5069;49.306;8.636;2023-04-27T15:41:54;100501.13;;;19.59;36.94
10060;BME280;5069;49.306;8.636;2023-04-27T15:44:58;100493.50;;;19.78;37.16
10060;BME280;5069;49.306;8.636;2023-04-27T15:48:00;100492.97;;;19.98;36.05
10060;BME280;5069;49.306;8.636;2023-04-27T15:51:02;100486.50;;;20.13;36.64
10060;BME280;5069;49.306;8.636;2023-04-27T15:54:09;100487.88;;;20.44;36.08
10060;BME280;5069;49.306;8.636;2023-04-27T15:57:10;100478.16;;;20.67;35.43
10060;BME280;5069;49.306;8.636;2023-04-27T16:00:13;100476.41;;;20.42;35.67
10060;BME280;5069;49.306;8.636;2023-04-27T16:03:16;100480.81;;;20.31;36.15
10060;BME280;5069;49.306;8.636;2023-04-27T16:06:18;100465.94;;;20.27;36.65
10060;BME280;5069;49.306;8.636;2023-04-27T16:09:19;100468.66;;;19.89;37.29
10060;BME280;5069;49.306;8.636;2023-04-27T16:12:21;100467.81;;;19.88;37.44
10060;BME280;5069;49.306;8.636;2023-04-27T16:15:22;100460.94;;;20.09;36.01
10060;BME280;5069;49.306;8.636;2023-04-27T16:18:24;100447.66;;;20.20;36.55